createdAt,value
2022-10-06T00:00:52.274Z,15.48
2022-10-06T00:05:54.674Z,15.48
2022-10-06T00:10:57.227Z,15.48
2022-10-06T00:16:00.037Z,15.5
2022-10-06T00:21:02.573Z,15.53
2022-10-06T00:26:05.333Z,15.45
2022-10-06T00:31:08.205Z,15.4
2022-10-06T00:36:10.861Z,15.53
2022-10-06T00:41:13.316Z,15.75
2022-10-06T00:46:16.364Z,15.94
2022-10-06T00:56:21.590Z,16.23
2022-10-06T01:01:24.308Z,16.42
2022-10-06T01:06:27.901Z,16.45
2022-10-06T01:11:33.470Z,16.52
2022-10-06T01:16:36.221Z,16.64
2022-10-06T01:21:38.854Z,16.52
2022-10-06T01:26:41.423Z,16.54
2022-10-06T01:36:46.700Z,16.66
2022-10-06T01:41:49.357Z,16.5
2022-10-06T01:46:52.655Z,16.37
2022-10-06T01:56:57.918Z,16.23
2022-10-06T02:02:00.679Z,16.09
2022-10-06T02:07:03.107Z,16.1
2022-10-06T02:12:05.777Z,16.01
2022-10-06T02:17:08.260Z,16
2022-10-06T02:22:10.811Z,15.94
2022-10-06T02:27:13.641Z,15.98
2022-10-06T02:32:16.408Z,15.97
2022-10-06T02:37:18.948Z,15.97
2022-10-06T02:42:21.589Z,15.98
2022-10-06T02:47:24.147Z,15.95
2022-10-06T02:52:26.685Z,16.02
2022-10-06T02:57:29.492Z,16.1
2022-10-06T03:02:32.242Z,16.24
2022-10-06T03:07:34.836Z,16.26
2022-10-06T03:12:37.585Z,16.34
2022-10-06T03:17:40.084Z,16.48
2022-10-06T03:22:42.923Z,16.58
2022-10-06T03:27:45.794Z,16.66
2022-10-06T03:32:48.616Z,16.77
2022-10-06T03:37:51.327Z,16.86
2022-10-06T03:42:54.004Z,16.78
2022-10-06T03:47:56.551Z,16.66
2022-10-06T03:52:59.154Z,16.51
2022-10-06T03:58:01.863Z,16.49
2022-10-06T04:03:04.360Z,16.52
2022-10-06T04:08:06.769Z,16.51
2022-10-06T04:13:09.516Z,16.48
2022-10-06T04:18:12.079Z,16.47
2022-10-06T04:23:14.875Z,16.5
2022-10-06T04:28:17.675Z,16.48
2022-10-06T04:33:20.073Z,16.52
2022-10-06T04:38:22.860Z,16.55
2022-10-06T04:43:25.607Z,16.5
2022-10-06T04:48:28.313Z,16.47
2022-10-06T04:53:30.654Z,16.42
2022-10-06T04:58:33.488Z,16.42
2022-10-06T05:03:36.187Z,16.39
2022-10-06T05:13:41.673Z,16.41
2022-10-06T05:18:44.457Z,16.47
2022-10-06T05:23:47.171Z,16.39
2022-10-06T05:28:50.069Z,16.34
2022-10-06T05:33:52.800Z,16.21
2022-10-06T05:38:55.602Z,16.15
2022-10-06T05:43:58.277Z,16.07
2022-10-06T05:49:00.853Z,15.98
2022-10-06T05:54:03.578Z,15.84
2022-10-06T05:59:05.982Z,15.72
2022-10-06T06:04:08.476Z,15.62
2022-10-06T06:09:11.156Z,15.61
2022-10-06T06:14:14.090Z,15.82
2022-10-06T06:19:16.869Z,16.11
2022-10-06T06:24:19.526Z,16.22
2022-10-06T06:29:22.170Z,16.28
2022-10-06T06:34:24.811Z,16.39
2022-10-06T06:39:27.424Z,16.29
2022-10-06T06:44:30.330Z,16.53
2022-10-06T06:49:35.812Z,16.87
2022-10-06T06:54:41.272Z,16.58
2022-10-06T06:59:43.833Z,16.37
2022-10-06T07:04:46.935Z,16.48
2022-10-06T07:09:49.651Z,16.46
2022-10-06T07:14:52.428Z,16.67
2022-10-06T07:19:55.084Z,16.96
2022-10-06T07:24:57.844Z,16.97
2022-10-06T07:35:06.023Z,17.28
2022-10-06T07:40:09.262Z,17.64
2022-10-06T07:45:11.962Z,17.42
2022-10-06T07:50:14.470Z,17.24
2022-10-06T07:55:16.850Z,17.12
2022-10-06T08:00:19.562Z,17.24
2022-10-06T08:05:22.232Z,16.76
2022-10-06T08:10:24.819Z,16.88
2022-10-06T08:15:36.377Z,17.03
2022-10-06T08:20:38.997Z,16.74
2022-10-06T08:25:41.363Z,16.76
2022-10-06T08:30:58.315Z,17.11
2022-10-06T08:36:01.059Z,17.09
2022-10-06T08:41:03.520Z,17
2022-10-06T08:46:06.191Z,17.08
2022-10-06T08:51:12.363Z,17.27
2022-10-06T08:56:17.928Z,17.67
2022-10-06T09:01:23.802Z,18.11
2022-10-06T09:06:26.362Z,17.86
2022-10-06T09:11:28.995Z,17.51
2022-10-06T09:21:37.291Z,17.99
2022-10-06T09:26:39.715Z,17.87
2022-10-06T09:31:42.754Z,17.95
2022-10-06T09:36:45.071Z,18.16
2022-10-06T09:41:47.955Z,17.82
2022-10-06T09:56:56.545Z,18.55
2022-10-06T10:01:59.162Z,18.36
2022-10-06T10:07:01.900Z,18.55
2022-10-06T10:12:04.483Z,18.17
2022-10-06T10:17:07.078Z,18.29
2022-10-06T10:37:18.795Z,19.38
2022-10-06T10:42:21.209Z,19.08
2022-10-06T10:47:23.995Z,18.97
2022-10-06T10:52:26.409Z,18.79
2022-10-06T10:57:33.710Z,18.53
2022-10-06T11:07:39.218Z,19.22
2022-10-06T11:17:48.185Z,19.28
2022-10-06T11:22:51.119Z,19.76
2022-10-06T11:27:53.816Z,19.61
2022-10-06T11:38:02.037Z,19.69
2022-10-06T11:43:04.325Z,18.79
2022-10-06T11:48:09.970Z,18.87
2022-10-06T11:53:13.137Z,19.17
2022-10-06T11:58:41.739Z,19.34
2022-10-06T12:03:18.017Z,19.2
2022-10-06T12:08:20.823Z,19.45
2022-10-06T12:14:12.273Z,19.33
2022-10-06T12:18:25.763Z,19.42
2022-10-06T12:23:28.675Z,19.51
2022-10-06T12:28:31.539Z,19.66
2022-10-06T12:33:33.983Z,19.67
2022-10-06T12:38:36.800Z,19.99
2022-10-06T12:43:39.312Z,19.68
2022-10-06T12:48:41.883Z,20.05
2022-10-06T12:53:44.537Z,19.96
2022-10-06T13:03:52.527Z,19.68
2022-10-06T13:08:55.161Z,19.5
2022-10-06T13:24:03.330Z,19.4
2022-10-06T13:29:08.696Z,19.33
2022-10-06T13:34:11.387Z,18.92
2022-10-06T13:39:14.106Z,19.15
2022-10-06T13:44:16.663Z,19.04
2022-10-06T13:49:19.861Z,19.13
2022-10-06T13:54:22.476Z,19.28
2022-10-06T13:59:25.058Z,19.12
2022-10-06T14:04:27.772Z,19.12
2022-10-06T14:09:30.491Z,19.19
2022-10-06T14:14:33.700Z,18.99
2022-10-06T14:19:39.585Z,18.91
2022-10-06T14:24:42.377Z,19.01
2022-10-06T14:29:47.896Z,18.63
2022-10-06T14:34:50.619Z,18.67
2022-10-06T14:39:53.945Z,18.53
2022-10-06T14:44:55.887Z,18.62
2022-10-06T14:49:58.493Z,18.54
2022-10-06T14:55:01.420Z,18.55
2022-10-06T15:00:03.755Z,18.41
2022-10-06T15:10:08.853Z,18.3
2022-10-06T15:15:11.583Z,18.24
2022-10-06T15:25:16.797Z,18.01
2022-10-06T15:30:19.533Z,17.94
2022-10-06T15:35:22.048Z,17.86
2022-10-06T15:45:27.589Z,17.66
2022-10-06T15:50:30.140Z,17.5
2022-10-06T15:55:32.839Z,17.4
2022-10-06T16:00:35.464Z,17.25
2022-10-06T16:05:38.090Z,17.08
2022-10-06T16:10:40.628Z,16.95
2022-10-06T16:15:43.294Z,16.79
2022-10-06T16:20:45.863Z,16.63
2022-10-06T16:25:48.562Z,16.49
2022-10-06T16:30:50.987Z,16.27
2022-10-06T16:35:54.078Z,16.11
2022-10-06T16:40:56.960Z,15.88
2022-10-06T16:46:08.345Z,15.69
2022-10-06T16:51:11.704Z,15.56
2022-10-06T17:01:16.976Z,15.25
2022-10-06T17:06:25.322Z,15.16
2022-10-06T17:11:28.076Z,15.05
2022-10-06T17:16:30.871Z,14.91
2022-10-06T17:21:45.378Z,14.74
2022-10-06T17:26:35.969Z,14.5
2022-10-06T17:31:38.605Z,14.35
2022-10-06T17:41:43.735Z,14.1
2022-10-06T17:46:46.252Z,13.87
2022-10-06T17:51:49.090Z,13.69
2022-10-06T17:56:51.705Z,13.55
2022-10-06T18:01:54.375Z,13.38
2022-10-06T18:06:56.925Z,13.26
2022-10-06T18:11:59.957Z,13.29
2022-10-06T18:17:02.654Z,13.18
2022-10-06T18:22:05.201Z,13.07
2022-10-06T18:27:08.260Z,12.94
2022-10-06T18:37:21.828Z,12.69
2022-10-06T18:42:25.447Z,12.62
2022-10-06T18:47:28.169Z,12.51
2022-10-06T18:52:30.625Z,12.51
2022-10-06T18:57:33.116Z,12.53
2022-10-06T19:02:36.201Z,12.4
2022-10-06T19:07:44.330Z,12.27
2022-10-06T19:12:46.663Z,12.13
2022-10-06T19:17:49.279Z,11.97
2022-10-06T19:22:51.930Z,11.89
2022-10-06T19:27:54.505Z,11.84
2022-10-06T19:32:57.129Z,11.69
2022-10-06T19:37:59.598Z,11.63
2022-10-06T19:43:02.322Z,11.59
2022-10-06T19:48:04.938Z,11.48
2022-10-06T19:53:07.487Z,11.34
2022-10-06T19:58:10.020Z,11.14
2022-10-06T20:03:12.982Z,11.13
2022-10-06T20:08:15.504Z,11.08
2022-10-06T20:13:18.322Z,10.91
2022-10-06T20:18:20.952Z,10.77
2022-10-06T20:23:23.700Z,10.71
2022-10-06T20:33:29.355Z,10.62
2022-10-06T20:38:31.870Z,10.6
2022-10-06T20:43:34.352Z,10.56
2022-10-06T20:58:42.418Z,10.46
2022-10-06T21:03:44.811Z,10.48
2022-10-06T21:08:47.462Z,10.4
2022-10-06T21:13:49.979Z,10.23
2022-10-06T21:18:52.626Z,10.19
2022-10-06T21:23:55.434Z,10.21
2022-10-06T21:34:00.546Z,10.2
2022-10-06T21:39:03.221Z,10.28
2022-10-06T21:44:08.752Z,10.3
2022-10-06T21:49:11.431Z,10.25
2022-10-06T21:54:13.878Z,10.05
2022-10-06T21:59:16.563Z,9.93
2022-10-06T22:09:24.771Z,9.73
2022-10-06T22:19:29.980Z,9.65
2022-10-06T22:24:32.600Z,9.5
2022-10-06T22:29:35.265Z,9.46
2022-10-06T22:34:38.181Z,9.44
2022-10-06T22:39:40.527Z,9.39
2022-10-06T22:44:43.251Z,9.42
2022-10-06T22:49:45.946Z,9.32
2022-10-06T22:54:48.658Z,9.26
2022-10-06T22:59:51.269Z,9.29
2022-10-06T23:04:53.809Z,9.18
2022-10-06T23:14:58.989Z,9.19
2022-10-06T23:20:01.663Z,9.14
2022-10-06T23:25:04.210Z,9.13
2022-10-06T23:35:09.568Z,8.95
2022-10-06T23:40:11.905Z,8.93
2022-10-06T23:45:14.560Z,8.8
2022-10-06T23:50:19.695Z,8.78
2022-10-06T23:55:22.343Z,8.76
